Terminal Aerodrome Forecast
Issued by NWS Green Bay, WI

Home | Current Version | Previous Version | Graphics & Text | Print | Product List | Glossary On
Versions: 1 2 3 4 5 6 7 8 9 10 11 12 13 14 15 16 17 18 19
000
FTUS43 KGRB 201004 AAB
TAFGRB
TAF AMD
KGRB 201004Z 2010/2106 08013G21KT 6SM RA BR OVC006
      TEMPO 2010/2012 4SM RA BKN004
     FM201200 08011KT 4SM -RA OVC005
     FM201300 09009KT P6SM VCSH OVC003
     FM201500 13007KT P6SM VCSH OVC008
     FM201800 27012G20KT P6SM OVC014
     FM210000 31014G22KT P6SM SCT020 BKN035=

USA.gov is the U.S. government's official web portal to all federal, state and local government web resources and services.